Aérodrome :
LOGIN :

S'inscrire | Disclaimer

   EN    FR    IT 

 










Légende :    VFR   VFR Marginal   IFR   IFR Intensif   IFR Très Intensif
Visi : 
Plafond : 
>= 8 km
>= 3000ft
5 à 8 km
1000 à 3000 ft
1500m à 5 km
500 à 1000 ft
800 à 1500m
200 à 500 ft
< 800m
< 200 ft
Symboles :   Orages  Brouillard  Fortes neiges  Fortes précipitations  Vent > 20 kt
SIGMETs :   Divers  Orages  Givrage  Turbulence  Onde Orograph.  Cendres Volcan.







- Altitude de l'aérodrome : 870 ft
- Code IATA : ETZ
- Voir les cartes d'approche


LFJL - Metz Nancy Lorraine

DERNIER METAR :
  • 142100Z AUTO 26004KT CAVOK 19/15 Q1020 NOSIG

METARs EXPIRÉS :
  • 142030Z AUTO 26005KT CAVOK 20/14 Q1020 NOSIG
  • 142000Z AUTO 24004KT CAVOK 20/14 Q1019 NOSIG
  • 141930Z AUTO 27004KT CAVOK 21/14 Q1019 NOSIG
  • 141900Z AUTO 28006KT 9999 FEW039 BKN047 BKN054 21/14 Q1019 NOSIG
  • 141830Z AUTO 29007KT 9999 BKN045 BKN054 BKN080 21/14 Q1019 NOSIG
  • 141800Z AUTO 28012KT 9999 FEW036 SCT047 BKN080 22/14 Q1019 NOSIG

TAF TAF LFJL
Valide du 14 à 18h jusqu'au 15 à 18h UTC


141700Z 1418/1518 30006KT 9999 FEW045 BKN055
Pas de NOTAMs connus pour ce terrain.



MET'MAP, la Météo Aéronautique d'un coup d'oeil ! - Copyright ORBIFLY Décembre 2007 - Disclaimer

ORBIFLY MET'MAP TEAM :

Programmation & Développement : Alexandra Zaïnal
Conception & Développement : Baudouin d'Aumeries
Co-Programmation & Développement : Marc-Olivier Méhu
Soutien technique & logistique : Manuel Goepfert

Contact : metmap@orbifly.com




SOURCES & CREDITS :

   NOAA